Time;durP1;ratioP1;P1;durP2;ratioP2;P2;SDS_P1;SDS_P2;PMS_P1;PMS_P2;Temp;Humidity;BMP_temperature;BMP_pressure;BME280_temperature;BME280_humidity;BME280_pressure;Samples;Min_cycle;Max_cycle;Signal;HPM_P1;HPM_P2
2021/01/03 00:01:52;;;;;;;4.50;2.10;;;9.40;99.90;;;;;;5033643;28;20104;-76
2021/01/03 00:04:18;;;;;;;10.40;2.40;;;9.40;99.90;;;;;;5033180;28;20040;-76
2021/01/03 00:06:43;;;;;;;9.88;2.20;;;9.40;99.90;;;;;;5033323;28;20037;-76
2021/01/03 00:09:10;;;;;;;6.70;2.22;;;9.50;99.90;;;;;;5033548;28;20493;-76
2021/01/03 00:11:37;;;;;;;4.65;1.83;;;9.50;99.90;;;;;;5033453;28;20060;-75
2021/01/03 00:14:04;;;;;;;7.45;1.88;;;9.50;99.90;;;;;;5033424;28;20030;-75
2021/01/03 00:16:29;;;;;;;3.20;1.90;;;9.50;99.90;;;;;;5033524;28;20481;-75
2021/01/03 00:18:55;;;;;;;5.50;1.83;;;9.50;99.90;;;;;;5033618;28;20034;-75
2021/01/03 00:21:21;;;;;;;4.82;2.00;;;9.50;99.90;;;;;;5033021;28;20183;-75
2021/01/03 00:23:46;;;;;;;8.18;2.00;;;9.60;99.90;;;;;;5033168;28;20084;-75
2021/01/03 00:26:12;;;;;;;3.25;1.60;;;9.60;99.90;;;;;;5033156;28;20100;-75
2021/01/03 00:28:38;;;;;;;2.08;1.40;;;9.60;99.90;;;;;;5033532;28;20096;-75
2021/01/03 00:31:03;;;;;;;9.18;1.52;;;9.60;99.90;;;;;;5032872;28;20013;-76
2021/01/03 00:33:29;;;;;;;6.10;1.45;;;9.70;99.90;;;;;;5031938;28;20355;-75
2021/01/03 00:35:55;;;;;;;4.45;1.92;;;9.70;99.90;;;;;;5019920;28;20381;-75
2021/01/03 00:38:20;;;;;;;3.13;2.03;;;9.60;99.90;;;;;;5032630;28;20032;-75
2021/01/03 00:40:46;;;;;;;7.20;1.92;;;9.70;99.90;;;;;;5032803;28;20053;-76
2021/01/03 00:43:13;;;;;;;4.10;1.60;;;9.60;99.90;;;;;;5032572;28;20543;-74
2021/01/03 00:45:40;;;;;;;3.80;1.48;;;9.70;99.90;;;;;;5032506;28;20025;-75
2021/01/03 00:48:07;;;;;;;3.33;1.45;;;9.70;99.90;;;;;;5032915;28;20030;-77
2021/01/03 00:50:33;;;;;;;2.25;1.35;;;9.70;99.90;;;;;;5022291;28;20057;-76
2021/01/03 00:52:59;;;;;;;6.75;1.30;;;9.80;99.90;;;;;;5028252;28;20060;-75
2021/01/03 00:55:25;;;;;;;3.78;1.48;;;9.70;99.90;;;;;;5021397;28;20087;-75
2021/01/03 00:57:51;;;;;;;6.25;3.20;;;9.70;99.90;;;;;;5009318;28;20389;-76
2021/01/03 01:00:33;;;;;;;2.60;1.50;;;9.80;99.90;;;;;;5030595;28;20060;-76
2021/01/03 01:03:01;;;;;;;4.80;1.80;;;9.70;99.90;;;;;;5030486;28;20037;-75
2021/01/03 01:05:27;;;;;;;3.28;1.30;;;9.70;99.90;;;;;;5032446;28;20025;-75
2021/01/03 01:07:53;;;;;;;6.15;1.48;;;9.70;99.90;;;;;;5032770;28;20385;-75
2021/01/03 01:10:22;;;;;;;4.30;1.52;;;9.80;99.90;;;;;;5031952;28;20032;-75
2021/01/03 01:12:50;;;;;;;3.30;1.50;;;9.80;99.90;;;;;;5032200;28;20029;-75
2021/01/03 01:15:18;;;;;;;4.15;1.52;;;9.70;99.90;;;;;;5031965;28;20032;-75
2021/01/03 01:17:45;;;;;;;11.40;1.90;;;9.70;99.90;;;;;;5031870;28;20033;-76
2021/01/03 01:20:12;;;;;;;4.18;2.05;;;9.70;99.90;;;;;;5032179;28;20071;-75
2021/01/03 01:22:37;;;;;;;3.03;1.77;;;9.70;99.90;;;;;;5032496;28;20025;-75
2021/01/03 01:25:05;;;;;;;3.20;1.77;;;9.70;99.90;;;;;;5031925;28;20355;-75
2021/01/03 01:27:31;;;;;;;3.67;1.40;;;9.80;99.90;;;;;;5023193;28;20034;-75
2021/01/03 01:29:56;;;;;;;5.68;1.52;;;9.80;99.90;;;;;;5001412;28;20021;-75
2021/01/03 01:32:22;;;;;;;5.50;1.88;;;9.80;99.90;;;;;;5032416;28;20418;-76
2021/01/03 01:34:48;;;;;;;2.70;1.70;;;9.80;99.90;;;;;;5032034;28;20108;-75
2021/01/03 01:37:14;;;;;;;4.20;1.48;;;9.80;99.90;;;;;;5031576;28;20120;-76
2021/01/03 01:39:39;;;;;;;4.22;2.00;;;9.80;99.90;;;;;;5032249;28;20026;-74
2021/01/03 01:42:05;;;;;;;6.47;1.75;;;9.80;99.90;;;;;;5032118;28;20028;-75
2021/01/03 01:44:31;;;;;;;3.95;1.80;;;9.80;99.90;;;;;;5024235;28;20173;-75
2021/01/03 01:47:10;;;;;;;4.70;2.00;;;9.90;99.90;;;;;;5028047;28;20021;-75
2021/01/03 01:49:40;;;;;;;5.25;1.60;;;9.90;99.90;;;;;;5031323;28;20096;-74
2021/01/03 01:52:06;;;;;;;8.05;1.98;;;9.90;99.90;;;;;;5032004;28;20024;-75
2021/01/03 01:54:36;;;;;;;5.88;2.10;;;9.90;99.90;;;;;;5031901;28;20037;-75
2021/01/03 01:57:24;;;;;;;6.20;2.50;;;9.90;99.90;;;;;;5031495;28;20032;-75
2021/01/03 02:00:00;;;;;;;4.93;2.40;;;9.90;99.90;;;;;;5031250;28;20040;-75
2021/01/03 02:02:38;;;;;;;6.43;2.70;;;9.90;99.90;;;;;;5031650;28;20025;-74
2021/01/03 02:05:13;;;;;;;7.97;1.90;;;9.80;99.90;;;;;;5031754;28;20509;-75
2021/01/03 02:07:44;;;;;;;2.28;1.63;;;9.90;99.90;;;;;;5031408;28;20040;-76
2021/01/03 02:10:20;;;;;;;6.20;1.90;;;9.80;99.90;;;;;;5044890;28;20029;-74
2021/01/03 02:12:52;;;;;;;5.32;2.05;;;9.80;99.90;;;;;;5029891;28;20029;-75
2021/01/03 02:15:29;;;;;;;5.15;1.75;;;9.80;99.90;;;;;;5031162;28;20036;-74
2021/01/03 02:17:56;;;;;;;5.45;1.83;;;9.80;99.90;;;;;;5031085;28;20052;-75
2021/01/03 02:20:26;;;;;;;7.60;1.60;;;9.80;99.90;;;;;;5031396;28;20473;-75
2021/01/03 02:22:59;;;;;;;7.78;1.90;;;9.80;99.90;;;;;;5029695;28;20033;-76
2021/01/03 02:25:24;;;;;;;3.83;1.77;;;9.80;99.90;;;;;;5030186;28;20052;-75
2021/01/03 02:28:20;;;;;;;3.60;1.77;;;9.80;99.90;;;;;;5031480;28;20057;-74
2021/01/03 02:30:50;;;;;;;5.82;1.90;;;9.80;99.90;;;;;;5031737;28;20028;-74
2021/01/03 02:33:22;;;;;;;1.98;1.45;;;9.80;99.90;;;;;;5031218;28;20018;-74
2021/01/03 02:35:49;;;;;;;;;;;9.80;99.90;;;;;;5032015;28;20498;-75
2021/01/03 02:38:21;;;;;;;4.97;2.00;;;9.80;99.90;;;;;;5029342;28;20336;-74
2021/01/03 02:40:46;;;;;;;5.95;1.85;;;9.80;99.90;;;;;;5029214;28;20504;-74
2021/01/03 02:43:12;;;;;;;9.48;1.60;;;9.80;99.90;;;;;;5029342;28;20049;-75
2021/01/03 02:45:38;;;;;;;4.80;1.88;;;9.70;99.90;;;;;;5029196;28;20025;-74
2021/01/03 02:48:16;;;;;;;5.57;1.67;;;9.80;99.90;;;;;;5029262;28;20021;-76
2021/01/03 02:50:41;;;;;;;4.22;1.77;;;9.80;99.90;;;;;;5029022;28;20080;-74
2021/01/03 02:53:08;;;;;;;8.57;2.00;;;9.80;99.90;;;;;;5029961;28;20022;-74
2021/01/03 02:55:35;;;;;;;5.57;1.73;;;9.80;99.90;;;;;;5031369;28;20029;-75
2021/01/03 02:58:00;;;;;;;5.30;2.00;;;9.80;99.90;;;;;;5031186;28;20037;-75
2021/01/03 03:00:32;;;;;;;5.97;1.85;;;9.80;99.90;;;;;;5031107;28;20485;-73
2021/01/03 03:02:58;;;;;;;14.40;2.05;;;9.70;99.90;;;;;;5031178;28;20549;-75
2021/01/03 03:05:25;;;;;;;4.00;1.80;;;9.70;99.90;;;;;;5031463;28;20032;-75
2021/01/03 03:07:51;;;;;;;5.07;1.73;;;9.70;99.90;;;;;;5030972;28;20428;-75
2021/01/03 03:10:18;;;;;;;7.20;1.60;;;9.70;99.90;;;;;;5031297;28;20198;-74
2021/01/03 03:12:49;;;;;;;5.88;1.70;;;9.70;99.90;;;;;;5031175;28;20033;-75
2021/01/03 03:15:15;;;;;;;7.85;1.77;;;9.70;99.90;;;;;;5031051;28;20486;-75
2021/01/03 03:17:41;;;;;;;4.47;1.45;;;9.70;99.90;;;;;;5030780;28;20124;-74
2021/01/03 03:20:07;;;;;;;10.27;2.20;;;9.60;99.90;;;;;;5030841;28;20168;-75
2021/01/03 03:22:33;;;;;;;6.03;1.80;;;9.60;99.90;;;;;;5030854;28;20524;-74
2021/01/03 03:24:59;;;;;;;3.85;1.88;;;9.60;99.90;;;;;;5031045;28;20113;-75
2021/01/03 03:27:24;;;;;;;5.07;1.60;;;9.50;99.90;;;;;;5033212;28;20064;-75
2021/01/03 03:29:50;;;;;;;6.75;1.80;;;9.50;99.90;;;;;;5034654;28;20079;-74
2021/01/03 03:32:16;;;;;;;5.55;2.38;;;9.50;99.90;;;;;;5033809;28;20120;-74
2021/01/03 03:34:41;;;;;;;8.90;1.95;;;9.50;99.90;;;;;;5034187;28;20079;-74
2021/01/03 03:37:07;;;;;;;5.68;1.67;;;9.50;99.90;;;;;;5033943;28;20041;-76
2021/01/03 03:39:33;;;;;;;9.05;2.40;;;9.50;99.90;;;;;;5034370;28;20027;-73
2021/01/03 03:42:00;;;;;;;11.90;2.10;;;9.40;99.90;;;;;;5034297;28;20025;-74
2021/01/03 03:44:27;;;;;;;4.13;1.88;;;9.40;99.90;;;;;;5034274;28;20095;-75
2021/01/03 03:47:03;;;;;;;7.10;2.00;;;9.40;99.90;;;;;;5016056;28;20026;-75
2021/01/03 03:49:30;;;;;;;4.10;1.92;;;9.40;99.90;;;;;;5033924;28;20022;-75
2021/01/03 03:51:57;;;;;;;9.77;2.10;;;9.40;99.90;;;;;;5034363;28;20032;-75
2021/01/03 03:54:23;;;;;;;8.80;2.42;;;9.40;99.90;;;;;;5033920;28;20041;-74
2021/01/03 03:57:01;;;;;;;7.57;2.13;;;9.50;99.90;;;;;;5034078;28;20129;-75
2021/01/03 03:59:27;;;;;;;9.95;2.13;;;9.50;99.90;;;;;;5034218;28;20029;-74
2021/01/03 04:01:54;;;;;;;5.93;2.08;;;9.50;99.90;;;;;;5033799;28;20026;-74
2021/01/03 04:04:20;;;;;;;6.15;1.90;;;9.60;99.90;;;;;;5033789;28;20461;-74
2021/01/03 04:06:46;;;;;;;6.40;2.33;;;9.60;99.90;;;;;;5033174;28;20030;-74
2021/01/03 04:09:13;;;;;;;4.40;2.00;;;9.60;99.90;;;;;;5033493;28;20029;-75
2021/01/03 04:11:40;;;;;;;8.50;2.38;;;9.60;99.90;;;;;;5033818;28;20061;-75
2021/01/03 04:14:06;;;;;;;8.40;2.55;;;9.60;99.90;;;;;;5033650;28;20377;-75
2021/01/03 04:16:32;;;;;;;12.90;2.30;;;9.60;99.90;;;;;;5033298;28;20017;-74
2021/01/03 04:18:58;;;;;;;5.43;2.20;;;9.60;99.90;;;;;;5033426;28;20029;-75
2021/01/03 04:21:23;;;;;;;6.93;1.95;;;9.60;99.90;;;;;;5033795;28;20371;-75
2021/01/03 04:23:49;;;;;;;6.22;1.83;;;9.60;99.90;;;;;;5033474;28;20036;-74
2021/01/03 04:26:17;;;;;;;10.15;2.30;;;9.60;99.90;;;;;;5033596;28;20061;-75
2021/01/03 04:28:43;;;;;;;5.72;2.38;;;9.60;99.90;;;;;;5032886;28;20026;-75
2021/01/03 04:31:09;;;;;;;13.40;2.20;;;9.50;99.90;;;;;;5033298;28;20101;-75
2021/01/03 04:33:34;;;;;;;13.32;2.45;;;9.50;99.90;;;;;;5030822;28;20032;-76
2021/01/03 04:36:00;;;;;;;14.60;2.60;;;9.60;99.90;;;;;;5029461;28;20034;-74
2021/01/03 04:38:26;;;;;;;17.33;2.05;;;9.60;99.90;;;;;;5032720;28;20163;-74
2021/01/03 04:40:55;;;;;;;6.97;3.53;;;9.60;99.90;;;;;;5032826;28;20057;-75
2021/01/03 04:43:21;;;;;;;11.70;2.80;;;9.60;99.90;;;;;;5032458;28;20049;-74
2021/01/03 04:45:56;;;;;;;15.25;2.28;;;9.60;99.90;;;;;;5033151;28;20405;-75
2021/01/03 04:48:27;;;;;;;11.65;3.60;;;9.60;99.90;;;;;;5033301;28;20075;-74
2021/01/03 04:51:14;;;;;;;13.93;2.10;;;9.50;99.90;;;;;;5032898;28;20032;-76
2021/01/03 04:53:52;;;;;;;13.13;1.95;;;9.50;99.90;;;;;;5032504;28;20470;-75
2021/01/03 04:56:17;;;;;;;7.18;2.22;;;9.50;99.90;;;;;;5032838;28;20029;-75
2021/01/03 04:59:07;;;;;;;11.35;2.35;;;9.50;99.90;;;;;;5032460;28;20116;-75
2021/01/03 05:01:38;;;;;;;8.60;2.13;;;9.40;99.90;;;;;;5032657;28;20034;-75
2021/01/03 05:04:33;;;;;;;9.77;2.50;;;9.40;99.90;;;;;;5032943;28;20017;-74
2021/01/03 05:07:05;;;;;;;8.70;2.42;;;9.30;99.90;;;;;;5017005;28;20070;-76
2021/01/03 05:09:31;;;;;;;10.80;2.40;;;9.20;99.90;;;;;;5032293;28;20351;-74
2021/01/03 05:12:15;;;;;;;8.85;2.42;;;9.20;99.90;;;;;;5032591;28;21095;-75
2021/01/03 05:15:11;;;;;;;9.73;2.40;;;9.20;99.90;;;;;;5032693;28;20453;-75
2021/01/03 05:17:37;;;;;;;5.10;2.08;;;9.00;99.90;;;;;;5031920;28;20037;-76
2021/01/03 05:20:05;;;;;;;9.52;2.53;;;8.90;99.90;;;;;;5032524;28;20032;-75
2021/01/03 05:22:36;;;;;;;10.75;2.17;;;8.90;99.90;;;;;;5032221;28;20029;-75
2021/01/03 05:25:09;;;;;;;7.70;2.25;;;8.80;99.90;;;;;;5032234;28;20486;-76
2021/01/03 05:27:35;;;;;;;7.53;2.00;;;8.90;99.90;;;;;;5031592;28;20501;-75
2021/01/03 05:30:13;;;;;;;5.75;2.30;;;8.80;99.90;;;;;;5031744;28;20018;-75
2021/01/03 05:32:38;;;;;;;9.23;2.47;;;8.80;99.90;;;;;;5032130;28;20346;-76
2021/01/03 05:35:20;;;;;;;7.93;2.28;;;8.80;99.90;;;;;;5032213;28;20051;-75
2021/01/03 05:37:47;;;;;;;11.20;2.45;;;8.80;99.90;;;;;;5032054;28;20046;-74
2021/01/03 05:40:29;;;;;;;9.82;3.20;;;8.70;99.90;;;;;;5030806;28;20025;-76
2021/01/03 05:43:23;;;;;;;5.57;2.67;;;8.70;99.90;;;;;;5030587;28;20398;-76
2021/01/03 05:46:16;;;;;;;9.95;2.58;;;8.70;99.90;;;;;;5032480;28;20113;-74
2021/01/03 05:48:56;;;;;;;11.18;2.85;;;8.70;99.90;;;;;;5031745;28;20029;-75
2021/01/03 05:51:46;;;;;;;11.80;3.00;;;8.70;99.90;;;;;;5031571;28;20238;-75
2021/01/03 05:54:16;;;;;;;8.93;2.28;;;8.70;99.90;;;;;;5024751;28;20040;-75
2021/01/03 05:56:43;;;;;;;7.75;2.30;;;8.70;99.90;;;;;;5031452;28;20064;-75
2021/01/03 05:59:29;;;;;;;14.13;2.75;;;8.60;99.90;;;;;;5031640;28;20033;-75
2021/01/03 06:02:08;;;;;;;7.63;2.60;;;8.70;99.90;;;;;;5032042;28;20018;-74
2021/01/03 06:04:33;;;;;;;5.57;2.80;;;8.60;99.90;;;;;;5030574;28;20076;-76
2021/01/03 06:07:24;;;;;;;14.43;3.10;;;8.60;99.90;;;;;;5031254;28;20025;-75
2021/01/03 06:09:50;;;;;;;11.52;3.20;;;8.60;99.90;;;;;;5031031;28;20030;-76
2021/01/03 06:12:30;;;;;;;12.27;3.35;;;8.50;99.90;;;;;;5031298;28;20025;-75
2021/01/03 06:15:03;;;;;;;6.38;2.90;;;8.50;99.90;;;;;;5031205;28;20029;-75
2021/01/03 06:17:45;;;;;;;16.83;3.15;;;8.40;99.90;;;;;;5031220;28;20083;-74
2021/01/03 06:20:15;;;;;;;;;;;8.30;99.90;;;;;;5032088;28;20386;-74
2021/01/03 06:22:58;;;;;;;9.60;2.67;;;8.20;99.90;;;;;;5031634;28;20070;-74
2021/01/03 06:25:59;;;;;;;14.48;4.22;;;8.20;99.90;;;;;;5031436;28;20040;-76
2021/01/03 06:28:24;;;;;;;11.82;4.10;;;8.10;99.90;;;;;;5032039;28;20022;-75
2021/01/03 06:30:59;;;;;;;13.43;3.22;;;8.10;99.90;;;;;;5027224;28;20038;-76
2021/01/03 06:33:59;;;;;;;14.82;3.35;;;8.10;99.90;;;;;;5031307;28;20482;-75
2021/01/03 06:36:41;;;;;;;13.93;3.83;;;8.10;99.90;;;;;;5031169;28;20052;-75
2021/01/03 06:39:32;;;;;;;21.25;3.88;;;8.20;99.90;;;;;;5030748;28;20025;-73
2021/01/03 06:42:04;;;;;;;15.68;2.83;;;8.20;99.90;;;;;;5029986;28;20021;-73
2021/01/03 06:44:29;;;;;;;;;;;8.20;99.90;;;;;;5030464;28;20116;-74
2021/01/03 06:47:08;;;;;;;8.57;2.90;;;8.30;99.90;;;;;;5030503;28;19995;-73
2021/01/03 06:49:39;;;;;;;6.35;2.80;;;8.30;99.90;;;;;;5030486;28;20022;-78
2021/01/03 06:52:20;;;;;;;16.67;3.20;;;8.30;99.90;;;;;;5030483;28;20030;-75
2021/01/03 06:55:08;;;;;;;5.15;2.00;;;8.40;99.90;;;;;;5030774;28;20061;-73
2021/01/03 06:57:55;;;;;;;15.50;2.88;;;8.40;99.90;;;;;;5030759;28;20030;-75
2021/01/03 07:00:38;;;;;;;15.90;3.17;;;8.50;99.90;;;;;;5031144;28;20029;-74
2021/01/03 07:03:21;;;;;;;17.63;2.95;;;8.50;99.90;;;;;;5033510;28;20018;-73
2021/01/03 07:06:05;;;;;;;11.65;2.40;;;8.50;99.90;;;;;;5034938;28;20108;-73
2021/01/03 07:08:51;;;;;;;10.60;3.28;;;8.60;99.90;;;;;;5034848;28;20029;-73
2021/01/03 07:11:42;;;;;;;10.80;4.30;;;8.60;99.90;;;;;;5035185;28;20045;-74
2021/01/03 07:14:28;;;;;;;14.30;2.95;;;8.70;99.90;;;;;;5024172;28;20025;-73
2021/01/03 07:16:57;;;;;;;7.32;2.47;;;8.70;99.90;;;;;;5033246;28;20076;-73
2021/01/03 07:19:32;;;;;;;12.63;3.10;;;8.80;99.90;;;;;;5033365;28;20030;-74
2021/01/03 07:22:13;;;;;;;5.22;2.20;;;8.80;99.90;;;;;;5033434;28;20036;-75
2021/01/03 07:24:50;;;;;;;17.42;4.93;;;8.80;99.90;;;;;;5033861;28;20037;-74
2021/01/03 07:27:24;;;;;;;11.88;4.22;;;8.90;99.90;;;;;;5033814;28;20068;-74
2021/01/03 07:29:56;;;;;;;15.18;3.22;;;8.90;99.90;;;;;;5021266;28;20474;-74
2021/01/03 07:32:27;;;;;;;7.65;2.78;;;9.00;99.90;;;;;;5034702;28;20440;-73
2021/01/03 07:34:54;;;;;;;9.60;2.78;;;9.00;99.90;;;;;;5034999;28;20442;-74
2021/01/03 07:37:28;;;;;;;7.68;2.80;;;9.00;99.90;;;;;;5034388;28;20029;-74
2021/01/03 07:40:16;;;;;;;11.13;3.35;;;9.00;99.90;;;;;;5033848;28;20474;-75
2021/01/03 07:42:44;;;;;;;15.55;3.00;;;9.00;99.90;;;;;;5034313;28;20065;-76
2021/01/03 07:45:10;;;;;;;10.90;2.85;;;9.20;99.90;;;;;;5034033;28;20026;-76
2021/01/03 07:47:46;;;;;;;10.02;2.92;;;9.30;99.90;;;;;;5034329;28;20092;-77
2021/01/03 07:50:30;;;;;;;9.07;3.15;;;9.50;99.90;;;;;;5034308;28;20045;-76
2021/01/03 07:53:23;;;;;;;10.40;3.38;;;9.60;99.90;;;;;;5034088;28;20035;-74
2021/01/03 07:55:49;;;;;;;16.42;3.65;;;9.60;99.90;;;;;;5034124;28;20029;-74
2021/01/03 07:58:17;;;;;;;8.27;2.55;;;9.70;99.90;;;;;;5033962;28;20037;-75
2021/01/03 08:00:44;;;;;;;8.85;3.08;;;10.10;99.90;;;;;;5034056;28;20163;-75
2021/01/03 08:03:16;;;;;;;11.25;3.40;;;10.80;99.90;;;;;;5034019;28;20033;-75
2021/01/03 08:05:43;;;;;;;;;;;11.60;99.90;;;;;;5034169;28;20022;-77
2021/01/03 08:08:17;;;;;;;4.90;2.55;;;12.00;99.90;;;;;;5033740;28;19917;-75
2021/01/03 08:10:44;;;;;;;10.38;2.72;;;12.50;99.90;;;;;;5016098;28;20429;-75
2021/01/03 08:13:16;;;;;;;13.88;3.67;;;12.90;99.90;;;;;;5015737;28;20079;-76
2021/01/03 08:15:42;;;;;;;18.30;3.33;;;13.20;99.90;;;;;;5034126;28;20025;-75
2021/01/03 08:18:15;;;;;;;16.42;3.60;;;13.50;99.90;;;;;;5033308;28;20124;-77
2021/01/03 08:20:41;;;;;;;10.77;2.67;;;13.90;99.90;;;;;;5033760;28;20028;-75
2021/01/03 08:23:26;;;;;;;8.82;3.08;;;14.30;99.90;;;;;;5033656;28;20033;-75
2021/01/03 08:26:11;;;;;;;13.00;2.70;;;14.70;99.90;;;;;;5033599;28;20431;-75
2021/01/03 08:28:58;;;;;;;9.38;2.70;;;15.10;99.90;;;;;;5033137;28;20053;-75
2021/01/03 08:31:27;;;;;;;4.85;2.40;;;15.30;99.90;;;;;;5033661;28;20493;-76
2021/01/03 08:33:54;;;;;;;13.30;2.58;;;15.30;99.90;;;;;;5033467;28;20033;-75
2021/01/03 08:36:30;;;;;;;7.15;2.38;;;15.40;99.90;;;;;;5033440;28;20106;-76
2021/01/03 08:39:05;;;;;;;18.67;2.55;;;15.40;99.90;;;;;;5032675;28;20048;-76
2021/01/03 08:41:36;;;;;;;10.25;2.83;;;15.40;99.90;;;;;;5033311;28;20478;-75
2021/01/03 08:44:04;;;;;;;10.18;2.60;;;15.50;99.90;;;;;;5032799;28;20049;-74
2021/01/03 08:46:33;;;;;;;8.65;2.28;;;15.50;99.90;;;;;;5033225;28;20025;-74
2021/01/03 08:49:10;;;;;;;7.45;2.55;;;15.20;99.90;;;;;;5033447;28;20029;-75
2021/01/03 08:51:36;;;;;;;11.55;2.35;;;15.00;99.90;;;;;;5032920;28;20057;-74
2021/01/03 08:54:06;;;;;;;21.77;2.67;;;14.80;99.90;;;;;;5032315;28;20017;-74
2021/01/03 08:56:39;;;;;;;6.78;2.38;;;14.50;99.90;;;;;;5031837;28;20036;-74
2021/01/03 08:59:05;;;;;;;9.00;2.33;;;14.30;99.90;;;;;;5031774;28;20037;-74
2021/01/03 09:01:34;;;;;;;9.48;2.58;;;14.10;99.90;;;;;;5032876;28;20017;-75
2021/01/03 09:04:08;;;;;;;8.75;2.17;;;13.80;99.90;;;;;;5029880;28;20627;-74
2021/01/03 09:06:35;;;;;;;7.90;2.47;;;13.50;99.90;;;;;;5031705;28;20470;-74
2021/01/03 09:09:10;;;;;;;7.50;2.67;;;13.30;99.90;;;;;;5029333;28;20097;-75
2021/01/03 09:11:38;;;;;;;10.90;2.72;;;12.80;99.90;;;;;;5031442;28;20022;-75
2021/01/03 09:14:25;;;;;;;12.82;2.50;;;12.60;99.90;;;;;;5031629;28;20175;-75
2021/01/03 09:17:09;;;;;;;10.48;2.83;;;12.30;99.90;;;;;;5031926;28;20029;-74
2021/01/03 09:19:58;;;;;;;19.85;3.65;;;12.10;99.90;;;;;;5031416;28;20042;-75
2021/01/03 09:22:26;;;;;;;8.98;2.97;;;12.00;99.90;;;;;;5031664;28;20191;-75
2021/01/03 09:25:01;;;;;;;7.63;3.05;;;11.80;99.90;;;;;;5031583;28;20052;-75
2021/01/03 09:27:29;;;;;;;9.05;3.05;;;11.60;99.90;;;;;;5032286;28;20387;-75
2021/01/03 09:30:18;;;;;;;18.70;3.55;;;11.50;99.90;;;;;;5032402;28;20021;-74
2021/01/03 09:32:45;;;;;;;11.25;2.70;;;11.40;99.90;;;;;;5032411;28;20478;-75
2021/01/03 09:35:23;;;;;;;8.38;2.95;;;11.20;99.90;;;;;;5031932;28;20041;-75
2021/01/03 09:38:07;;;;;;;9.98;3.00;;;11.20;99.90;;;;;;5025019;28;20033;-75
2021/01/03 09:40:45;;;;;;;9.73;2.65;;;11.20;99.90;;;;;;5029179;28;20034;-76
2021/01/03 09:43:38;;;;;;;9.60;2.88;;;11.30;99.90;;;;;;5026887;28;20545;-76
2021/01/03 09:46:22;;;;;;;8.05;3.30;;;11.60;99.90;;;;;;5027471;28;20402;-75
2021/01/03 09:48:48;;;;;;;7.47;2.70;;;12.50;99.90;;;;;;5030690;28;20104;-76
2021/01/03 09:51:32;;;;;;;5.72;2.63;;;13.90;99.90;;;;;;5032189;28;20099;-74
2021/01/03 09:54:14;;;;;;;11.23;2.75;;;15.20;99.90;;;;;;5013332;28;20013;-78
2021/01/03 09:56:40;;;;;;;6.63;2.57;;;15.70;99.90;;;;;;5021569;28;20022;-77
2021/01/03 09:59:16;;;;;;;12.05;2.45;;;15.80;99.90;;;;;;5020498;28;20276;-75
2021/01/03 10:01:44;;;;;;;8.82;2.40;;;16.20;99.90;;;;;;5021722;28;20100;-76
2021/01/03 10:04:22;;;;;;;11.07;2.13;;;17.10;99.90;;;;;;5010521;28;20367;-75
2021/01/03 10:06:55;;;;;;;13.18;2.40;;;17.00;99.90;;;;;;5029902;28;20025;-75
2021/01/03 10:09:23;;;;;;;6.43;2.00;;;16.50;99.90;;;;;;5023691;28;20018;-76
2021/01/03 10:11:49;;;;;;;8.75;2.20;;;16.00;99.90;;;;;;5026808;28;20029;-75
2021/01/03 10:14:27;;;;;;;12.10;2.47;;;15.30;99.90;;;;;;5028564;28;20064;-74
2021/01/03 10:16:53;;;;;;;4.85;2.03;;;14.40;99.90;;;;;;5029881;28;20053;-74
2021/01/03 10:19:22;;;;;;;10.02;2.75;;;13.70;99.90;;;;;;5031568;28;20018;-74
2021/01/03 10:21:48;;;;;;;8.30;2.00;;;13.30;99.90;;;;;;5030631;28;20021;-75
2021/01/03 10:24:27;;;;;;;9.40;2.40;;;13.00;99.90;;;;;;5029223;28;20048;-76
2021/01/03 10:27:05;;;;;;;6.40;2.63;;;12.70;99.90;;;;;;5029518;28;20021;-74
2021/01/03 10:29:32;;;;;;;10.10;3.05;;;12.50;99.90;;;;;;5028167;28;20037;-75
2021/01/03 10:31:58;;;;;;;10.75;2.78;;;12.40;99.90;;;;;;5028062;28;20382;-73
2021/01/03 10:34:25;;;;;;;12.27;2.83;;;12.60;99.90;;;;;;5029506;28;20544;-73
2021/01/03 10:36:57;;;;;;;13.57;3.00;;;12.90;99.90;;;;;;5033449;28;20378;-73
2021/01/03 10:39:23;;;;;;;11.25;3.33;;;14.10;99.90;;;;;;5033325;28;20436;-73
2021/01/03 10:41:49;;;;;;;10.85;2.60;;;15.60;99.90;;;;;;5034272;28;20033;-74
2021/01/03 10:44:16;;;;;;;8.57;2.10;;;17.00;99.90;;;;;;5031425;28;20123;-75
2021/01/03 10:46:42;;;;;;;11.35;2.75;;;17.10;99.90;;;;;;5034332;28;20029;-73
2021/01/03 10:49:09;;;;;;;5.60;2.17;;;17.80;99.90;;;;;;5034660;28;20033;-73
2021/01/03 10:51:37;;;;;;;10.95;2.65;;;18.10;99.90;;;;;;5034936;28;20026;-74
2021/01/03 10:54:04;;;;;;;7.68;2.70;;;18.00;99.90;;;;;;5035441;28;20029;-74
2021/01/03 10:56:30;;;;;;;7.75;2.55;;;17.80;99.90;;;;;;5035192;28;20076;-75
2021/01/03 10:58:56;;;;;;;6.13;3.05;;;17.70;99.90;;;;;;5035017;28;20085;-75
2021/01/03 11:01:23;;;;;;;9.73;2.95;;;17.30;99.90;;;;;;5034078;28;20025;-74
2021/01/03 11:03:49;;;;;;;9.00;2.50;;;16.60;99.90;;;;;;5023179;28;20035;-76
2021/01/03 11:06:16;;;;;;;13.57;2.90;;;16.10;99.90;;;;;;5016966;28;20028;-75
2021/01/03 11:08:42;;;;;;;11.13;2.67;;;15.60;99.90;;;;;;5017179;28;20029;-75
2021/01/03 11:11:08;;;;;;;12.73;2.80;;;15.10;99.90;;;;;;5034459;28;20025;-75
2021/01/03 11:13:34;;;;;;;14.23;3.25;;;15.00;99.90;;;;;;5035222;28;20532;-76
2021/01/03 11:16:00;;;;;;;14.38;2.30;;;15.60;99.90;;;;;;5034922;28;20038;-75
2021/01/03 11:18:26;;;;;;;6.60;2.35;;;16.40;99.90;;;;;;5034543;28;20034;-74
2021/01/03 11:20:52;;;;;;;11.05;2.63;;;17.70;99.90;;;;;;5034778;28;20125;-76
2021/01/03 11:23:18;;;;;;;8.27;2.58;;;18.60;99.90;;;;;;5034252;28;20444;-75
2021/01/03 11:25:45;;;;;;;4.95;2.10;;;19.40;99.90;;;;;;5034383;28;20022;-75
2021/01/03 11:28:11;;;;;;;6.38;2.28;;;19.90;99.90;;;;;;5034518;28;20064;-74
2021/01/03 11:30:37;;;;;;;5.90;1.90;;;20.30;99.90;;;;;;5034459;28;20049;-76
2021/01/03 11:33:03;;;;;;;4.47;1.48;;;20.50;99.90;;;;;;5015956;28;20041;-77
2021/01/03 11:35:29;;;;;;;11.45;2.53;;;20.30;99.90;;;;;;5034058;28;20138;-76
2021/01/03 11:37:54;;;;;;;8.52;2.20;;;19.70;99.90;;;;;;5033831;28;20125;-77
2021/01/03 11:40:20;;;;;;;5.55;2.47;;;18.90;99.90;;;;;;5034415;28;20428;-75
2021/01/03 11:42:46;;;;;;;12.57;1.98;;;18.10;99.90;;;;;;5032529;28;20073;-76
2021/01/03 11:45:16;;;;;;;8.93;2.00;;;17.50;99.90;;;;;;5033489;28;20029;-76
2021/01/03 11:47:42;;;;;;;10.43;2.35;;;17.20;99.90;;;;;;5027902;28;20063;-75
2021/01/03 11:50:11;;;;;;;8.23;2.30;;;17.00;99.90;;;;;;5014849;28;20025;-74
2021/01/03 11:52:38;;;;;;;7.85;2.00;;;16.80;99.90;;;;;;5016057;28;20029;-75
2021/01/03 11:55:07;;;;;;;6.63;2.13;;;16.60;99.90;;;;;;5034117;28;20088;-73
2021/01/03 11:57:32;;;;;;;7.18;1.90;;;16.30;99.90;;;;;;5030413;28;20452;-74
2021/01/03 11:59:58;;;;;;;8.13;2.53;;;16.10;99.90;;;;;;5033814;28;20164;-75
2021/01/03 12:02:24;;;;;;;7.03;2.97;;;15.70;99.90;;;;;;5033783;28;20485;-73
2021/01/03 12:04:49;;;;;;;11.02;2.83;;;15.30;99.90;;;;;;5033360;28;20037;-76
2021/01/03 12:07:17;;;;;;;7.32;2.78;;;15.20;99.90;;;;;;5023335;28;20100;-75
2021/01/03 12:09:45;;;;;;;11.18;2.42;;;15.00;99.90;;;;;;5027098;28;20489;-76
2021/01/03 12:12:12;;;;;;;12.82;2.70;;;14.70;99.90;;;;;;5025833;28;20162;-73
2021/01/03 12:14:39;;;;;;;9.40;2.60;;;14.50;99.90;;;;;;5028813;28;20486;-74
2021/01/03 12:17:12;;;;;;;10.98;2.63;;;14.40;99.90;;;;;;5031286;28;20117;-74
2021/01/03 12:19:38;;;;;;;9.32;2.38;;;14.20;99.90;;;;;;5026567;28;20034;-73
2021/01/03 12:22:05;;;;;;;8.77;3.95;;;14.00;99.90;;;;;;5032960;28;20148;-73
2021/01/03 12:24:31;;;;;;;8.50;3.25;;;13.70;99.90;;;;;;5021846;28;20045;-74
2021/01/03 12:26:58;;;;;;;13.27;4.05;;;13.60;99.90;;;;;;5023487;28;20493;-74
2021/01/03 12:29:25;;;;;;;12.70;4.78;;;13.50;99.90;;;;;;5023745;28;20108;-75
2021/01/03 12:31:54;;;;;;;7.07;3.65;;;13.50;99.90;;;;;;5032267;28;20024;-75
2021/01/03 12:34:22;;;;;;;14.25;4.43;;;13.60;99.90;;;;;;5027028;28;20044;-75
2021/01/03 12:36:47;;;;;;;9.90;4.53;;;13.60;99.90;;;;;;5029418;28;20057;-76
2021/01/03 12:39:16;;;;;;;14.45;5.30;;;13.70;99.90;;;;;;5023986;28;20064;-76
2021/01/03 12:41:41;;;;;;;10.05;4.38;;;13.70;99.90;;;;;;5028124;28;20065;-75
2021/01/03 12:44:09;;;;;;;9.90;4.13;;;13.70;99.90;;;;;;5021771;28;20077;-77
2021/01/03 12:46:37;;;;;;;9.40;4.20;;;13.80;99.90;;;;;;5029435;28;20024;-75
2021/01/03 12:49:04;;;;;;;11.73;3.83;;;13.70;99.90;;;;;;5029850;28;20406;-75
2021/01/03 12:51:31;;;;;;;9.48;3.17;;;13.60;99.90;;;;;;5028009;28;20057;-75
2021/01/03 12:53:57;;;;;;;7.82;3.78;;;13.50;99.90;;;;;;5021420;28;20439;-77
2021/01/03 12:56:24;;;;;;;10.65;3.75;;;13.50;99.90;;;;;;5030426;28;20061;-75
2021/01/03 12:58:50;;;;;;;10.40;3.90;;;13.40;99.90;;;;;;5021961;28;20061;-75
2021/01/03 13:01:16;;;;;;;19.30;4.55;;;13.40;99.90;;;;;;5018779;28;20027;-75
2021/01/03 13:03:41;;;;;;;12.00;3.17;;;13.30;99.90;;;;;;5031188;28;20112;-75
2021/01/03 13:06:10;;;;;;;37.60;28.67;;;13.20;99.90;;;;;;5032008;28;20053;-74
2021/01/03 13:08:36;;;;;;;31.88;24.65;;;13.20;99.90;;;;;;5027008;28;20037;-75
2021/01/03 13:11:02;;;;;;;25.75;18.30;;;13.10;99.90;;;;;;5027615;28;20021;-74